sensor_id;sensor_type;location;lat;lon;timestamp;P1;durP1;ratioP1;P2;durP2;ratioP2
2522;SDS011;1272;53.332;9.860;2022-09-21T00:00:49;4.40;;;4.10;;
2522;SDS011;1272;53.332;9.860;2022-09-21T00:03:15;3.90;;;3.60;;
2522;SDS011;1272;53.332;9.860;2022-09-21T00:05:40;5.00;;;3.83;;
2522;SDS011;1272;53.332;9.860;2022-09-21T00:08:07;4.33;;;3.97;;
2522;SDS011;1272;53.332;9.860;2022-09-21T00:10:34;3.47;;;3.17;;
2522;SDS011;1272;53.332;9.860;2022-09-21T00:13:00;4.10;;;3.70;;
2522;SDS011;1272;53.332;9.860;2022-09-21T00:15:29;6.87;;;3.53;;
2522;SDS011;1272;53.332;9.860;2022-09-21T00:17:56;5.03;;;3.37;;
2522;SDS011;1272;53.332;9.860;2022-09-21T00:20:25;3.67;;;2.97;;
2522;SDS011;1272;53.332;9.860;2022-09-21T00:22:53;3.93;;;3.70;;
2522;SDS011;1272;53.332;9.860;2022-09-21T00:25:18;3.40;;;3.10;;
2522;SDS011;1272;53.332;9.860;2022-09-21T00:27:45;4.20;;;3.07;;
2522;SDS011;1272;53.332;9.860;2022-09-21T00:30:12;3.13;;;2.93;;
2522;SDS011;1272;53.332;9.860;2022-09-21T00:32:39;7.63;;;3.10;;
2522;SDS011;1272;53.332;9.860;2022-09-21T00:35:05;3.70;;;3.27;;
2522;SDS011;1272;53.332;9.860;2022-09-21T00:37:31;3.27;;;2.97;;
2522;SDS011;1272;53.332;9.860;2022-09-21T00:39:57;4.70;;;3.30;;
2522;SDS011;1272;53.332;9.860;2022-09-21T00:44:53;3.93;;;3.13;;
2522;SDS011;1272;53.332;9.860;2022-09-21T00:47:53;4.73;;;3.30;;
2522;SDS011;1272;53.332;9.860;2022-09-21T00:50:15;3.30;;;2.63;;
2522;SDS011;1272;53.332;9.860;2022-09-21T00:52:46;3.70;;;2.83;;
2522;SDS011;1272;53.332;9.860;2022-09-21T00:55:20;5.10;;;3.00;;
2522;SDS011;1272;53.332;9.860;2022-09-21T00:57:49;3.63;;;3.37;;
2522;SDS011;1272;53.332;9.860;2022-09-21T01:00:20;3.30;;;3.03;;
2522;SDS011;1272;53.332;9.860;2022-09-21T01:02:46;5.00;;;3.60;;
2522;SDS011;1272;53.332;9.860;2022-09-21T01:05:12;4.27;;;3.00;;
2522;SDS011;1272;53.332;9.860;2022-09-21T01:07:42;3.87;;;3.47;;
2522;SDS011;1272;53.332;9.860;2022-09-21T01:10:14;3.07;;;2.87;;
2522;SDS011;1272;53.332;9.860;2022-09-21T01:15:47;3.50;;;3.03;;
2522;SDS011;1272;53.332;9.860;2022-09-21T01:18:20;3.67;;;2.97;;
2522;SDS011;1272;53.332;9.860;2022-09-21T01:21:18;3.33;;;2.93;;
2522;SDS011;1272;53.332;9.860;2022-09-21T01:23:57;3.40;;;3.10;;
2522;SDS011;1272;53.332;9.860;2022-09-21T01:29:51;2.80;;;2.70;;
2522;SDS011;1272;53.332;9.860;2022-09-21T01:32:33;5.97;;;3.50;;
2522;SDS011;1272;53.332;9.860;2022-09-21T01:35:23;3.10;;;2.90;;
2522;SDS011;1272;53.332;9.860;2022-09-21T01:37:57;3.00;;;2.37;;
2522;SDS011;1272;53.332;9.860;2022-09-21T01:40:30;5.17;;;3.40;;
2522;SDS011;1272;53.332;9.860;2022-09-21T01:42:58;3.07;;;2.77;;
2522;SDS011;1272;53.332;9.860;2022-09-21T01:45:28;3.10;;;2.90;;
2522;SDS011;1272;53.332;9.860;2022-09-21T01:47:58;4.80;;;2.90;;
2522;SDS011;1272;53.332;9.860;2022-09-21T01:50:25;4.83;;;3.43;;
2522;SDS011;1272;53.332;9.860;2022-09-21T01:53:00;2.90;;;2.70;;
2522;SDS011;1272;53.332;9.860;2022-09-21T01:55:33;2.77;;;2.57;;
2522;SDS011;1272;53.332;9.860;2022-09-21T01:58:07;3.43;;;2.40;;
2522;SDS011;1272;53.332;9.860;2022-09-21T02:00:38;2.57;;;2.37;;
2522;SDS011;1272;53.332;9.860;2022-09-21T02:03:24;3.10;;;2.90;;
2522;SDS011;1272;53.332;9.860;2022-09-21T02:06:00;3.00;;;2.80;;
2522;SDS011;1272;53.332;9.860;2022-09-21T02:08:29;5.27;;;3.07;;
2522;SDS011;1272;53.332;9.860;2022-09-21T02:11:01;3.73;;;2.50;;
2522;SDS011;1272;53.332;9.860;2022-09-21T02:13:33;2.23;;;2.10;;
2522;SDS011;1272;53.332;9.860;2022-09-21T02:21:28;4.43;;;2.63;;
2522;SDS011;1272;53.332;9.860;2022-09-21T02:26:33;4.63;;;2.90;;
2522;SDS011;1272;53.332;9.860;2022-09-21T02:31:36;3.30;;;2.80;;
2522;SDS011;1272;53.332;9.860;2022-09-21T02:34:21;3.17;;;3.00;;
2522;SDS011;1272;53.332;9.860;2022-09-21T02:36:57;2.93;;;2.60;;
2522;SDS011;1272;53.332;9.860;2022-09-21T02:39:39;2.57;;;2.37;;
2522;SDS011;1272;53.332;9.860;2022-09-21T02:42:16;2.60;;;2.40;;
2522;SDS011;1272;53.332;9.860;2022-09-21T02:44:57;2.87;;;2.57;;
2522;SDS011;1272;53.332;9.860;2022-09-21T02:47:40;4.97;;;3.07;;
2522;SDS011;1272;53.332;9.860;2022-09-21T02:50:14;4.10;;;3.00;;
2522;SDS011;1272;53.332;9.860;2022-09-21T02:52:45;2.77;;;2.57;;
2522;SDS011;1272;53.332;9.860;2022-09-21T02:55:12;2.63;;;2.43;;
2522;SDS011;1272;53.332;9.860;2022-09-21T02:57:41;3.17;;;2.90;;
2522;SDS011;1272;53.332;9.860;2022-09-21T03:00:07;2.77;;;2.67;;
2522;SDS011;1272;53.332;9.860;2022-09-21T03:02:37;2.50;;;2.30;;
2522;SDS011;1272;53.332;9.860;2022-09-21T03:05:04;2.60;;;2.40;;
2522;SDS011;1272;53.332;9.860;2022-09-21T03:07:31;3.37;;;2.10;;
2522;SDS011;1272;53.332;9.860;2022-09-21T03:09:57;2.10;;;2.00;;
2522;SDS011;1272;53.332;9.860;2022-09-21T03:12:22;2.53;;;2.13;;
2522;SDS011;1272;53.332;9.860;2022-09-21T03:14:48;2.90;;;2.77;;
2522;SDS011;1272;53.332;9.860;2022-09-21T03:17:15;3.87;;;2.77;;
2522;SDS011;1272;53.332;9.860;2022-09-21T03:19:41;2.80;;;2.60;;
2522;SDS011;1272;53.332;9.860;2022-09-21T03:22:07;2.13;;;2.03;;
2522;SDS011;1272;53.332;9.860;2022-09-21T03:24:33;2.40;;;2.23;;
2522;SDS011;1272;53.332;9.860;2022-09-21T03:27:14;2.60;;;2.50;;
2522;SDS011;1272;53.332;9.860;2022-09-21T03:29:45;2.77;;;2.67;;
2522;SDS011;1272;53.332;9.860;2022-09-21T03:32:11;3.73;;;2.23;;
2522;SDS011;1272;53.332;9.860;2022-09-21T03:34:38;2.87;;;2.60;;
2522;SDS011;1272;53.332;9.860;2022-09-21T03:37:05;2.60;;;2.40;;
2522;SDS011;1272;53.332;9.860;2022-09-21T03:39:32;2.73;;;2.50;;
2522;SDS011;1272;53.332;9.860;2022-09-21T03:41:57;2.93;;;2.73;;
2522;SDS011;1272;53.332;9.860;2022-09-21T03:44:24;2.67;;;2.47;;
2522;SDS011;1272;53.332;9.860;2022-09-21T03:46:51;3.13;;;2.50;;
2522;SDS011;1272;53.332;9.860;2022-09-21T03:49:16;3.20;;;2.90;;
2522;SDS011;1272;53.332;9.860;2022-09-21T03:51:43;3.00;;;2.80;;
2522;SDS011;1272;53.332;9.860;2022-09-21T03:54:08;5.57;;;2.53;;
2522;SDS011;1272;53.332;9.860;2022-09-21T03:56:35;2.40;;;2.30;;
2522;SDS011;1272;53.332;9.860;2022-09-21T03:59:01;2.50;;;2.30;;
2522;SDS011;1272;53.332;9.860;2022-09-21T04:01:26;2.20;;;2.10;;
2522;SDS011;1272;53.332;9.860;2022-09-21T04:03:52;5.23;;;2.30;;
2522;SDS011;1272;53.332;9.860;2022-09-21T04:06:18;2.40;;;2.30;;
2522;SDS011;1272;53.332;9.860;2022-09-21T04:08:44;4.37;;;2.50;;
2522;SDS011;1272;53.332;9.860;2022-09-21T04:11:10;3.10;;;2.40;;
2522;SDS011;1272;53.332;9.860;2022-09-21T04:13:37;2.53;;;2.33;;
2522;SDS011;1272;53.332;9.860;2022-09-21T04:16:03;2.70;;;2.50;;
2522;SDS011;1272;53.332;9.860;2022-09-21T04:18:29;4.43;;;3.50;;
2522;SDS011;1272;53.332;9.860;2022-09-21T04:20:54;3.17;;;2.80;;
2522;SDS011;1272;53.332;9.860;2022-09-21T04:23:20;2.87;;;2.37;;
2522;SDS011;1272;53.332;9.860;2022-09-21T04:25:47;2.53;;;2.30;;
2522;SDS011;1272;53.332;9.860;2022-09-21T04:28:15;2.67;;;2.47;;
2522;SDS011;1272;53.332;9.860;2022-09-21T04:30:41;3.13;;;2.77;;
2522;SDS011;1272;53.332;9.860;2022-09-21T04:33:07;2.93;;;2.70;;
2522;SDS011;1272;53.332;9.860;2022-09-21T04:35:32;3.10;;;2.90;;
2522;SDS011;1272;53.332;9.860;2022-09-21T04:37:58;2.60;;;2.40;;
2522;SDS011;1272;53.332;9.860;2022-09-21T04:40:24;2.63;;;2.43;;
2522;SDS011;1272;53.332;9.860;2022-09-21T04:42:50;4.77;;;2.70;;
2522;SDS011;1272;53.332;9.860;2022-09-21T04:45:17;3.73;;;2.40;;
2522;SDS011;1272;53.332;9.860;2022-09-21T04:47:43;3.20;;;3.00;;
2522;SDS011;1272;53.332;9.860;2022-09-21T04:50:09;3.27;;;3.07;;
2522;SDS011;1272;53.332;9.860;2022-09-21T04:52:35;4.00;;;3.70;;
2522;SDS011;1272;53.332;9.860;2022-09-21T04:55:01;3.50;;;3.30;;
2522;SDS011;1272;53.332;9.860;2022-09-21T04:57:28;4.17;;;3.40;;
2522;SDS011;1272;53.332;9.860;2022-09-21T04:59:53;3.47;;;3.27;;
2522;SDS011;1272;53.332;9.860;2022-09-21T05:02:19;2.67;;;2.47;;
2522;SDS011;1272;53.332;9.860;2022-09-21T05:04:45;2.97;;;2.70;;
2522;SDS011;1272;53.332;9.860;2022-09-21T05:07:10;3.50;;;3.17;;
2522;SDS011;1272;53.332;9.860;2022-09-21T05:09:36;3.33;;;3.03;;
2522;SDS011;1272;53.332;9.860;2022-09-21T05:12:20;5.23;;;3.27;;
2522;SDS011;1272;53.332;9.860;2022-09-21T05:14:46;3.13;;;2.83;;
2522;SDS011;1272;53.332;9.860;2022-09-21T05:17:11;2.90;;;2.70;;
2522;SDS011;1272;53.332;9.860;2022-09-21T05:19:37;6.50;;;2.70;;
2522;SDS011;1272;53.332;9.860;2022-09-21T05:22:03;3.33;;;3.00;;
2522;SDS011;1272;53.332;9.860;2022-09-21T05:24:29;2.43;;;2.23;;
2522;SDS011;1272;53.332;9.860;2022-09-21T05:26:55;3.00;;;2.80;;
2522;SDS011;1272;53.332;9.860;2022-09-21T05:29:21;2.50;;;2.30;;
2522;SDS011;1272;53.332;9.860;2022-09-21T05:31:54;6.40;;;2.93;;
2522;SDS011;1272;53.332;9.860;2022-09-21T05:40:02;16.87;;;10.63;;
2522;SDS011;1272;53.332;9.860;2022-09-21T05:42:29;7.07;;;5.67;;
2522;SDS011;1272;53.332;9.860;2022-09-21T05:44:55;5.63;;;4.10;;
2522;SDS011;1272;53.332;9.860;2022-09-21T05:47:37;8.77;;;3.27;;
2522;SDS011;1272;53.332;9.860;2022-09-21T05:50:13;3.57;;;3.27;;
2522;SDS011;1272;53.332;9.860;2022-09-21T05:52:49;3.93;;;3.63;;
2522;SDS011;1272;53.332;9.860;2022-09-21T05:55:39;5.10;;;3.80;;
2522;SDS011;1272;53.332;9.860;2022-09-21T05:58:22;4.67;;;3.13;;
2522;SDS011;1272;53.332;9.860;2022-09-21T06:03:42;5.40;;;3.60;;
2522;SDS011;1272;53.332;9.860;2022-09-21T06:06:08;3.80;;;3.43;;
2522;SDS011;1272;53.332;9.860;2022-09-21T06:08:34;4.20;;;3.90;;
2522;SDS011;1272;53.332;9.860;2022-09-21T06:11:00;7.80;;;4.40;;
2522;SDS011;1272;53.332;9.860;2022-09-21T06:13:26;4.90;;;4.40;;
2522;SDS011;1272;53.332;9.860;2022-09-21T06:15:52;5.13;;;4.63;;
2522;SDS011;1272;53.332;9.860;2022-09-21T06:18:17;4.37;;;3.97;;
2522;SDS011;1272;53.332;9.860;2022-09-21T06:20:43;8.07;;;5.30;;
2522;SDS011;1272;53.332;9.860;2022-09-21T06:23:11;7.30;;;4.23;;
2522;SDS011;1272;53.332;9.860;2022-09-21T06:25:37;5.30;;;4.77;;
2522;SDS011;1272;53.332;9.860;2022-09-21T06:28:04;5.00;;;4.50;;
2522;SDS011;1272;53.332;9.860;2022-09-21T06:30:31;4.50;;;4.20;;
2522;SDS011;1272;53.332;9.860;2022-09-21T06:33:00;5.10;;;4.70;;
2522;SDS011;1272;53.332;9.860;2022-09-21T06:35:27;4.93;;;4.43;;
2522;SDS011;1272;53.332;9.860;2022-09-21T06:37:58;6.70;;;4.83;;
2522;SDS011;1272;53.332;9.860;2022-09-21T06:40:31;5.70;;;4.77;;
2522;SDS011;1272;53.332;9.860;2022-09-21T06:42:59;5.20;;;4.70;;
2522;SDS011;1272;53.332;9.860;2022-09-21T06:45:26;4.90;;;4.40;;
2522;SDS011;1272;53.332;9.860;2022-09-21T06:47:53;5.70;;;5.10;;
2522;SDS011;1272;53.332;9.860;2022-09-21T06:50:19;9.70;;;4.50;;
2522;SDS011;1272;53.332;9.860;2022-09-21T06:52:45;6.73;;;4.70;;
2522;SDS011;1272;53.332;9.860;2022-09-21T06:55:11;4.60;;;4.13;;
2522;SDS011;1272;53.332;9.860;2022-09-21T06:57:37;5.10;;;4.43;;
2522;SDS011;1272;53.332;9.860;2022-09-21T07:00:04;4.90;;;4.13;;
2522;SDS011;1272;53.332;9.860;2022-09-21T07:02:32;5.23;;;4.73;;
2522;SDS011;1272;53.332;9.860;2022-09-21T07:04:57;5.60;;;4.80;;
2522;SDS011;1272;53.332;9.860;2022-09-21T07:07:24;5.50;;;5.07;;
2522;SDS011;1272;53.332;9.860;2022-09-21T07:09:50;6.63;;;4.80;;
2522;SDS011;1272;53.332;9.860;2022-09-21T07:12:16;6.13;;;5.63;;
2522;SDS011;1272;53.332;9.860;2022-09-21T07:14:42;6.60;;;5.13;;
2522;SDS011;1272;53.332;9.860;2022-09-21T07:17:09;5.57;;;5.07;;
2522;SDS011;1272;53.332;9.860;2022-09-21T07:19:35;6.40;;;5.40;;
2522;SDS011;1272;53.332;9.860;2022-09-21T07:22:01;7.10;;;5.63;;
2522;SDS011;1272;53.332;9.860;2022-09-21T07:24:26;5.20;;;4.80;;
2522;SDS011;1272;53.332;9.860;2022-09-21T07:26:52;7.00;;;5.90;;
2522;SDS011;1272;53.332;9.860;2022-09-21T07:29:18;7.43;;;6.67;;
2522;SDS011;1272;53.332;9.860;2022-09-21T07:31:44;10.43;;;7.57;;
2522;SDS011;1272;53.332;9.860;2022-09-21T07:34:09;8.97;;;7.63;;
2522;SDS011;1272;53.332;9.860;2022-09-21T07:36:35;9.90;;;8.07;;
2522;SDS011;1272;53.332;9.860;2022-09-21T07:39:01;11.00;;;8.90;;
2522;SDS011;1272;53.332;9.860;2022-09-21T07:41:27;15.97;;;11.43;;
2522;SDS011;1272;53.332;9.860;2022-09-21T07:43:53;18.10;;;13.40;;
2522;SDS011;1272;53.332;9.860;2022-09-21T07:46:19;32.30;;;13.60;;
2522;SDS011;1272;53.332;9.860;2022-09-21T07:48:45;14.50;;;10.70;;
2522;SDS011;1272;53.332;9.860;2022-09-21T07:51:12;19.63;;;12.07;;
2522;SDS011;1272;53.332;9.860;2022-09-21T07:53:40;16.83;;;12.03;;
2522;SDS011;1272;53.332;9.860;2022-09-21T07:56:09;24.23;;;13.50;;
2522;SDS011;1272;53.332;9.860;2022-09-21T07:58:37;21.97;;;13.13;;
2522;SDS011;1272;53.332;9.860;2022-09-21T08:01:22;16.03;;;12.50;;
2522;SDS011;1272;53.332;9.860;2022-09-21T08:03:49;13.67;;;11.77;;
2522;SDS011;1272;53.332;9.860;2022-09-21T08:06:16;13.00;;;11.70;;
2522;SDS011;1272;53.332;9.860;2022-09-21T08:08:42;14.43;;;10.30;;
2522;SDS011;1272;53.332;9.860;2022-09-21T08:11:09;21.13;;;10.40;;
2522;SDS011;1272;53.332;9.860;2022-09-21T08:13:35;13.43;;;9.30;;
2522;SDS011;1272;53.332;9.860;2022-09-21T08:16:02;12.73;;;9.93;;
2522;SDS011;1272;53.332;9.860;2022-09-21T08:18:28;15.77;;;9.93;;
2522;SDS011;1272;53.332;9.860;2022-09-21T08:20:54;11.53;;;9.70;;
2522;SDS011;1272;53.332;9.860;2022-09-21T08:23:21;17.03;;;8.20;;
2522;SDS011;1272;53.332;9.860;2022-09-21T08:25:47;15.83;;;8.17;;
2522;SDS011;1272;53.332;9.860;2022-09-21T08:28:13;10.00;;;7.43;;
2522;SDS011;1272;53.332;9.860;2022-09-21T08:30:39;9.90;;;8.00;;
2522;SDS011;1272;53.332;9.860;2022-09-21T08:33:06;9.03;;;6.70;;
2522;SDS011;1272;53.332;9.860;2022-09-21T08:35:33;17.10;;;7.00;;
2522;SDS011;1272;53.332;9.860;2022-09-21T08:37:59;9.93;;;6.73;;
2522;SDS011;1272;53.332;9.860;2022-09-21T08:40:25;8.13;;;7.33;;
2522;SDS011;1272;53.332;9.860;2022-09-21T08:45:17;9.40;;;5.60;;
2522;SDS011;1272;53.332;9.860;2022-09-21T08:47:48;15.77;;;7.63;;
2522;SDS011;1272;53.332;9.860;2022-09-21T08:55:44;3.53;;;3.00;;
2522;SDS011;1272;53.332;9.860;2022-09-21T08:58:21;5.23;;;2.90;;
2522;SDS011;1272;53.332;9.860;2022-09-21T09:00:59;5.43;;;3.67;;
2522;SDS011;1272;53.332;9.860;2022-09-21T09:09:51;5.40;;;2.30;;
2522;SDS011;1272;53.332;9.860;2022-09-21T09:17:53;2.33;;;2.13;;
2522;SDS011;1272;53.332;9.860;2022-09-21T09:20:56;3.23;;;3.03;;
2522;SDS011;1272;53.332;9.860;2022-09-21T09:23:31;2.33;;;2.13;;
2522;SDS011;1272;53.332;9.860;2022-09-21T09:26:03;1.50;;;1.20;;
2522;SDS011;1272;53.332;9.860;2022-09-21T09:28:44;4.90;;;1.93;;
2522;SDS011;1272;53.332;9.860;2022-09-21T09:31:23;3.07;;;2.03;;
2522;SDS011;1272;53.332;9.860;2022-09-21T09:36:36;7.37;;;2.10;;
2522;SDS011;1272;53.332;9.860;2022-09-21T09:39:14;4.57;;;2.20;;
2522;SDS011;1272;53.332;9.860;2022-09-21T09:52:16;2.33;;;2.17;;
2522;SDS011;1272;53.332;9.860;2022-09-21T09:54:42;4.73;;;2.80;;
2522;SDS011;1272;53.332;9.860;2022-09-21T09:57:09;9.00;;;2.27;;
2522;SDS011;1272;53.332;9.860;2022-09-21T09:59:47;3.93;;;1.90;;
2522;SDS011;1272;53.332;9.860;2022-09-21T10:02:19;2.70;;;1.80;;
2522;SDS011;1272;53.332;9.860;2022-09-21T10:04:59;3.17;;;1.63;;
2522;SDS011;1272;53.332;9.860;2022-09-21T10:07:40;3.30;;;1.50;;
2522;SDS011;1272;53.332;9.860;2022-09-21T10:10:32;3.07;;;1.70;;
2522;SDS011;1272;53.332;9.860;2022-09-21T10:13:13;4.70;;;2.00;;
2522;SDS011;1272;53.332;9.860;2022-09-21T10:15:54;2.10;;;1.70;;
2522;SDS011;1272;53.332;9.860;2022-09-21T10:21:13;3.73;;;1.30;;
2522;SDS011;1272;53.332;9.860;2022-09-21T10:23:59;2.93;;;1.63;;
2522;SDS011;1272;53.332;9.860;2022-09-21T10:26:30;4.43;;;1.77;;
2522;SDS011;1272;53.332;9.860;2022-09-21T10:29:02;1.47;;;1.20;;
2522;SDS011;1272;53.332;9.860;2022-09-21T10:34:26;3.17;;;2.40;;
2522;SDS011;1272;53.332;9.860;2022-09-21T10:36:54;3.97;;;1.33;;
2522;SDS011;1272;53.332;9.860;2022-09-21T10:41:50;2.63;;;1.53;;
2522;SDS011;1272;53.332;9.860;2022-09-21T10:44:25;1.37;;;1.27;;
2522;SDS011;1272;53.332;9.860;2022-09-21T10:50:00;2.80;;;1.17;;
2522;SDS011;1272;53.332;9.860;2022-09-21T10:52:40;2.20;;;1.30;;
2522;SDS011;1272;53.332;9.860;2022-09-21T10:55:14;4.37;;;1.40;;
2522;SDS011;1272;53.332;9.860;2022-09-21T10:57:42;3.67;;;1.20;;
2522;SDS011;1272;53.332;9.860;2022-09-21T11:02:53;2.93;;;1.33;;
2522;SDS011;1272;53.332;9.860;2022-09-21T11:13:41;2.93;;;1.20;;
2522;SDS011;1272;53.332;9.860;2022-09-21T11:16:20;1.97;;;1.07;;
2522;SDS011;1272;53.332;9.860;2022-09-21T11:19:19;3.27;;;1.20;;
2522;SDS011;1272;53.332;9.860;2022-09-21T11:22:07;1.30;;;0.93;;
2522;SDS011;1272;53.332;9.860;2022-09-21T11:28:03;3.10;;;1.43;;
2522;SDS011;1272;53.332;9.860;2022-09-21T11:45:01;1.87;;;0.80;;
2522;SDS011;1272;53.332;9.860;2022-09-21T11:56:06;2.20;;;0.90;;
2522;SDS011;1272;53.332;9.860;2022-09-21T12:12:51;2.00;;;0.90;;
2522;SDS011;1272;53.332;9.860;2022-09-21T12:16:09;1.10;;;1.00;;
2522;SDS011;1272;53.332;9.860;2022-09-21T12:23:47;1.30;;;1.20;;
2522;SDS011;1272;53.332;9.860;2022-09-21T12:26:18;2.87;;;1.20;;
2522;SDS011;1272;53.332;9.860;2022-09-21T12:28:52;1.47;;;0.90;;
2522;SDS011;1272;53.332;9.860;2022-09-21T12:31:28;1.67;;;1.07;;
2522;SDS011;1272;53.332;9.860;2022-09-21T12:34:25;1.20;;;0.90;;
2522;SDS011;1272;53.332;9.860;2022-09-21T12:36:57;0.90;;;0.80;;
2522;SDS011;1272;53.332;9.860;2022-09-21T12:42:26;1.87;;;0.77;;
2522;SDS011;1272;53.332;9.860;2022-09-21T12:45:06;2.87;;;0.90;;
2522;SDS011;1272;53.332;9.860;2022-09-21T12:50:41;3.53;;;1.00;;
2522;SDS011;1272;53.332;9.860;2022-09-21T12:53:13;3.80;;;0.90;;
2522;SDS011;1272;53.332;9.860;2022-09-21T13:04:19;1.60;;;0.87;;
2522;SDS011;1272;53.332;9.860;2022-09-21T13:09:18;2.27;;;1.33;;
2522;SDS011;1272;53.332;9.860;2022-09-21T13:11:59;2.20;;;0.90;;
2522;SDS011;1272;53.332;9.860;2022-09-21T13:14:30;1.10;;;0.90;;
2522;SDS011;1272;53.332;9.860;2022-09-21T13:17:00;1.50;;;0.90;;
2522;SDS011;1272;53.332;9.860;2022-09-21T13:19:29;1.10;;;0.90;;
2522;SDS011;1272;53.332;9.860;2022-09-21T13:24:40;1.20;;;1.10;;
2522;SDS011;1272;53.332;9.860;2022-09-21T13:27:08;1.63;;;1.00;;
2522;SDS011;1272;53.332;9.860;2022-09-21T13:29:34;1.37;;;0.80;;
2522;SDS011;1272;53.332;9.860;2022-09-21T13:34:43;2.03;;;1.83;;
2522;SDS011;1272;53.332;9.860;2022-09-21T13:45:00;2.63;;;1.90;;
2522;SDS011;1272;53.332;9.860;2022-09-21T13:47:50;1.20;;;1.10;;
2522;SDS011;1272;53.332;9.860;2022-09-21T13:53:07;1.90;;;1.80;;
2522;SDS011;1272;53.332;9.860;2022-09-21T13:55:53;1.23;;;1.23;;
2522;SDS011;1272;53.332;9.860;2022-09-21T13:58:25;2.03;;;1.17;;
2522;SDS011;1272;53.332;9.860;2022-09-21T14:01:11;1.30;;;1.10;;
2522;SDS011;1272;53.332;9.860;2022-09-21T14:03:58;2.00;;;1.20;;
2522;SDS011;1272;53.332;9.860;2022-09-21T14:06:27;0.97;;;0.97;;
2522;SDS011;1272;53.332;9.860;2022-09-21T14:09:03;3.27;;;1.07;;
2522;SDS011;1272;53.332;9.860;2022-09-21T14:11:43;1.10;;;0.97;;
2522;SDS011;1272;53.332;9.860;2022-09-21T14:14:27;1.30;;;0.93;;
2522;SDS011;1272;53.332;9.860;2022-09-21T14:17:14;1.40;;;0.87;;
2522;SDS011;1272;53.332;9.860;2022-09-21T14:23:09;3.23;;;1.03;;
2522;SDS011;1272;53.332;9.860;2022-09-21T14:30:54;3.77;;;0.93;;
2522;SDS011;1272;53.332;9.860;2022-09-21T14:33:28;1.20;;;0.83;;
2522;SDS011;1272;53.332;9.860;2022-09-21T14:35:59;1.40;;;0.70;;
2522;SDS011;1272;53.332;9.860;2022-09-21T14:38:34;0.80;;;0.80;;
2522;SDS011;1272;53.332;9.860;2022-09-21T14:41:07;0.80;;;0.80;;
2522;SDS011;1272;53.332;9.860;2022-09-21T14:43:34;2.80;;;1.60;;
2522;SDS011;1272;53.332;9.860;2022-09-21T14:54:45;1.10;;;0.90;;
2522;SDS011;1272;53.332;9.860;2022-09-21T15:02:08;0.97;;;0.73;;
2522;SDS011;1272;53.332;9.860;2022-09-21T15:05:00;2.00;;;0.70;;
2522;SDS011;1272;53.332;9.860;2022-09-21T15:10:36;0.87;;;0.87;;
2522;SDS011;1272;53.332;9.860;2022-09-21T15:16:37;2.30;;;0.83;;
2522;SDS011;1272;53.332;9.860;2022-09-21T15:21:43;1.17;;;0.70;;
2522;SDS011;1272;53.332;9.860;2022-09-21T15:24:18;0.67;;;0.60;;
2522;SDS011;1272;53.332;9.860;2022-09-21T15:26:50;1.60;;;0.70;;
2522;SDS011;1272;53.332;9.860;2022-09-21T15:29:25;3.40;;;1.00;;
2522;SDS011;1272;53.332;9.860;2022-09-21T15:31:54;1.17;;;1.07;;
2522;SDS011;1272;53.332;9.860;2022-09-21T15:34:20;1.10;;;0.70;;
2522;SDS011;1272;53.332;9.860;2022-09-21T15:36:47;1.43;;;1.00;;
2522;SDS011;1272;53.332;9.860;2022-09-21T15:39:23;1.23;;;0.70;;
2522;SDS011;1272;53.332;9.860;2022-09-21T15:44:34;0.70;;;0.70;;
2522;SDS011;1272;53.332;9.860;2022-09-21T15:47:01;0.97;;;0.70;;
2522;SDS011;1272;53.332;9.860;2022-09-21T15:49:32;1.20;;;1.00;;
2522;SDS011;1272;53.332;9.860;2022-09-21T15:52:00;2.13;;;0.70;;
2522;SDS011;1272;53.332;9.860;2022-09-21T15:54:34;1.53;;;0.80;;
2522;SDS011;1272;53.332;9.860;2022-09-21T15:57:04;1.30;;;0.83;;
2522;SDS011;1272;53.332;9.860;2022-09-21T15:59:49;1.67;;;0.80;;
2522;SDS011;1272;53.332;9.860;2022-09-21T16:02:17;2.20;;;1.00;;
2522;SDS011;1272;53.332;9.860;2022-09-21T16:04:51;0.87;;;0.87;;
2522;SDS011;1272;53.332;9.860;2022-09-21T16:07:24;1.17;;;0.90;;
2522;SDS011;1272;53.332;9.860;2022-09-21T16:09:55;1.53;;;0.80;;
2522;SDS011;1272;53.332;9.860;2022-09-21T16:12:44;2.00;;;0.90;;
2522;SDS011;1272;53.332;9.860;2022-09-21T16:18:05;0.90;;;0.77;;
2522;SDS011;1272;53.332;9.860;2022-09-21T16:20:44;0.70;;;0.70;;
2522;SDS011;1272;53.332;9.860;2022-09-21T16:23:16;1.57;;;0.97;;
2522;SDS011;1272;53.332;9.860;2022-09-21T16:25:44;2.03;;;0.80;;
2522;SDS011;1272;53.332;9.860;2022-09-21T16:38:46;0.67;;;0.67;;
2522;SDS011;1272;53.332;9.860;2022-09-21T16:41:13;2.13;;;0.80;;
2522;SDS011;1272;53.332;9.860;2022-09-21T16:43:40;1.20;;;1.10;;
2522;SDS011;1272;53.332;9.860;2022-09-21T16:46:10;0.83;;;0.83;;
2522;SDS011;1272;53.332;9.860;2022-09-21T16:48:37;1.63;;;1.40;;
2522;SDS011;1272;53.332;9.860;2022-09-21T16:51:21;3.40;;;1.63;;
2522;SDS011;1272;53.332;9.860;2022-09-21T16:53:52;2.80;;;2.00;;
2522;SDS011;1272;53.332;9.860;2022-09-21T16:56:19;1.83;;;1.73;;
2522;SDS011;1272;53.332;9.860;2022-09-21T16:58:45;1.93;;;1.73;;
2522;SDS011;1272;53.332;9.860;2022-09-21T17:01:12;4.20;;;2.40;;
2522;SDS011;1272;53.332;9.860;2022-09-21T17:03:44;1.73;;;1.63;;
2522;SDS011;1272;53.332;9.860;2022-09-21T17:08:41;1.50;;;1.30;;
2522;SDS011;1272;53.332;9.860;2022-09-21T17:11:07;1.63;;;1.33;;
2522;SDS011;1272;53.332;9.860;2022-09-21T17:13:33;1.63;;;1.23;;
2522;SDS011;1272;53.332;9.860;2022-09-21T17:15:58;1.67;;;1.43;;
2522;SDS011;1272;53.332;9.860;2022-09-21T17:18:24;1.70;;;1.60;;
2522;SDS011;1272;53.332;9.860;2022-09-21T17:20:50;3.83;;;1.60;;
2522;SDS011;1272;53.332;9.860;2022-09-21T17:23:15;1.77;;;1.63;;
2522;SDS011;1272;53.332;9.860;2022-09-21T17:25:41;2.10;;;1.90;;
2522;SDS011;1272;53.332;9.860;2022-09-21T17:28:13;1.90;;;1.80;;
2522;SDS011;1272;53.332;9.860;2022-09-21T17:30:42;2.30;;;2.20;;
2522;SDS011;1272;53.332;9.860;2022-09-21T17:33:10;2.10;;;1.90;;
2522;SDS011;1272;53.332;9.860;2022-09-21T17:35:37;1.63;;;1.50;;
2522;SDS011;1272;53.332;9.860;2022-09-21T17:38:04;2.00;;;1.90;;
2522;SDS011;1272;53.332;9.860;2022-09-21T17:40:30;3.20;;;3.00;;
2522;SDS011;1272;53.332;9.860;2022-09-21T17:46:10;3.80;;;3.50;;
2522;SDS011;1272;53.332;9.860;2022-09-21T17:48:44;4.43;;;3.70;;
2522;SDS011;1272;53.332;9.860;2022-09-21T17:51:13;3.17;;;2.97;;
2522;SDS011;1272;53.332;9.860;2022-09-21T17:53:58;3.47;;;3.23;;
2522;SDS011;1272;53.332;9.860;2022-09-21T17:59:05;3.03;;;2.83;;
2522;SDS011;1272;53.332;9.860;2022-09-21T18:01:59;3.90;;;3.60;;
2522;SDS011;1272;53.332;9.860;2022-09-21T18:04:27;3.63;;;3.30;;
2522;SDS011;1272;53.332;9.860;2022-09-21T18:06:56;3.40;;;3.20;;
2522;SDS011;1272;53.332;9.860;2022-09-21T18:09:22;3.40;;;3.10;;
2522;SDS011;1272;53.332;9.860;2022-09-21T18:11:49;3.30;;;3.10;;
2522;SDS011;1272;53.332;9.860;2022-09-21T18:17:35;3.87;;;3.57;;
2522;SDS011;1272;53.332;9.860;2022-09-21T18:22:51;5.87;;;4.80;;
2522;SDS011;1272;53.332;9.860;2022-09-21T18:25:26;5.03;;;4.53;;
2522;SDS011;1272;53.332;9.860;2022-09-21T18:27:58;4.57;;;4.20;;
2522;SDS011;1272;53.332;9.860;2022-09-21T18:30:36;5.40;;;4.90;;
2522;SDS011;1272;53.332;9.860;2022-09-21T18:36:07;7.10;;;6.37;;
2522;SDS011;1272;53.332;9.860;2022-09-21T18:38:41;9.00;;;7.90;;
2522;SDS011;1272;53.332;9.860;2022-09-21T18:41:21;13.67;;;12.00;;
2522;SDS011;1272;53.332;9.860;2022-09-21T18:44:14;16.83;;;14.53;;
2522;SDS011;1272;53.332;9.860;2022-09-21T18:55:21;12.77;;;11.47;;
2522;SDS011;1272;53.332;9.860;2022-09-21T18:57:52;11.10;;;9.90;;
2522;SDS011;1272;53.332;9.860;2022-09-21T19:00:19;12.87;;;10.47;;
2522;SDS011;1272;53.332;9.860;2022-09-21T19:02:45;13.60;;;10.73;;
2522;SDS011;1272;53.332;9.860;2022-09-21T19:05:14;12.20;;;10.70;;
2522;SDS011;1272;53.332;9.860;2022-09-21T19:08:00;10.70;;;9.70;;
2522;SDS011;1272;53.332;9.860;2022-09-21T19:10:38;11.40;;;10.30;;
2522;SDS011;1272;53.332;9.860;2022-09-21T19:19:02;8.33;;;7.47;;
2522;SDS011;1272;53.332;9.860;2022-09-21T19:24:29;7.73;;;7.03;;
2522;SDS011;1272;53.332;9.860;2022-09-21T19:27:11;8.17;;;7.37;;
2522;SDS011;1272;53.332;9.860;2022-09-21T19:29:52;10.33;;;9.23;;
2522;SDS011;1272;53.332;9.860;2022-09-21T19:37:37;8.97;;;8.27;;
2522;SDS011;1272;53.332;9.860;2022-09-21T19:40:03;9.77;;;8.83;;
2522;SDS011;1272;53.332;9.860;2022-09-21T19:42:36;10.53;;;8.57;;
2522;SDS011;1272;53.332;9.860;2022-09-21T19:47:50;9.13;;;7.20;;